GMTTGMFF

Guest
Details From GMTT - IBN BATOUTA
To GMFF - SAISS
Flight Number -
Tags generated
Created
Modified
Stats Distance 118 nm / 218 km
Max Altitude 13,500 ft / 4,115 m
Waypoints 4
Social Downloads 0
Likes 0
Share VATSIM

Download

Looking for another format? Having issues loading an existing format? Contact us
Advertisement - Login to hide

Notes

Basic altitude profile: - Ascent Rate: 2500ft/min - Ascent Speed: 250kts - Cruise Altitude: 35000ft - Cruise Speed: 420kts - Descent Rate: 1500ft/min - Descent Speed: 250kts Options: - Use NATs: yes - Use PACOTS: yes - Use low airways: yes - Use high airways: yes

Route

GMTT MADOV W240F IXODA GMFF

ID Type Via Altitude Latitude Longitude Leg Dist Tot Dist Heading (true) Name
O GMTT APT - 0 ft / 0 m 35.72691˚ -5.91690˚ - 0 nm - IBN BATOUTA
MADOV FIX - 7,200 ft / 2,195 m 35.41472˚ -5.75222˚ 20 nm 20 nm 157° / 157° -
IXODA FIX W240F (AWY-LO) 13,500 ft / 4,115 m 34.95889˚ -5.54833˚ 29 nm 49 nm 160° / 160° -
O GMFF APT - 0 ft / 0 m 33.92733˚ -4.97793˚ 68 nm 117 nm 155° / 156° SAISS

Altitude Profile

Advertisement - Login to hide

GMTT

Details ICAO GMTT (TNG)
Name IBN BATOUTA
Region Morocco
Timezone Africa/Casablanca (UTC+0.0)
Stats Elevation 62 ft / 19 m (AMSL)
Location 35.726911° -5.916900°
Runways 2
Magnetic Variation 1.291° W

METAR

GMTT 111300Z VRB03KT 5000 FEW010 BKN015 FEW020CB 11/08 Q1006 NOSIG

Decode

TAF

TAF GMTT 111100Z 1112/1218 27008KT 3000 RA SCT005 BKN015 FEW020CB BECMG 1114/1116 22015G25KT 8000 SCT016 TEMPO 1200/1205 2000 TSRA SCT008 BKN015 FEW020CB BECMG 1205/1207 27006KT 6000 SCT010

Decode

Departure Runways

ID Width Length Bearing (true) Bearing (mag) Surface Threshold Offset Overrun Length
07 98 ft / 30 m 6,555 ft / 1,998 m 69.91° 71.20° Asphalt 0 ft / 0 m 0 ft / 0 m
10 148 ft / 45 m 11,465 ft / 3,495 m 96.01° 97.30° Asphalt 0 ft / 0 m 197 ft / 60 m
25 98 ft / 30 m 6,555 ft / 1,998 m 249.92° 251.21° Asphalt 0 ft / 0 m 0 ft / 0 m
28 148 ft / 45 m 11,465 ft / 3,495 m 276.03° 277.32° Asphalt 1,640 ft / 500 m 197 ft / 60 m

GMFF

Details ICAO GMFF (FEZ)
Name SAISS
Region Morocco
Timezone Africa/Casablanca (UTC+0.0)
Stats Elevation 1,900 ft / 579 m (AMSL)
Location 33.927327° -4.977931°
Runways 1
Magnetic Variation 1.034° W

METAR

GMFF 111309Z 31013KT 2500 SCT005 BKN026 FEW030CB 09/09 Q1008 NOSIG B0

Decode

TAF

TAF GMFF 111100Z 1112/1218 24025G37KT 6000 RA BKN026 BKN100 BECMG 1113/1115 TSRA SCT010 BKN026 FEW033CB

Decode

Destination Runways

ID Width Length Bearing (true) Bearing (mag) Surface Threshold Offset Overrun Length
09 148 ft / 45 m 10,461 ft / 3,189 m 90.26° 91.29° Asphalt 0 ft / 0 m 197 ft / 60 m
27 148 ft / 45 m 10,461 ft / 3,189 m 270.28° 271.31° Asphalt 820 ft / 250 m 0 ft / 0 m

Popular Alternatives